world map with LHBC marked

LHBC - Airport

This information may not be accurate or current and is not valid for navigation or flight planning. No warranty of fitness for any purpose is made or implied.

flag of Békésflag of Hungary

Donate via PayPal

Additional information is available on the NEW Great Circle Mapper

Location
City:  Békéscsaba, Békés, Hungary
Name:Békéscsaba Airport
ICAO:LHBC

Details
Type:Airport (Aerodrome, Airfield)
Use:Private
Latitude:46°41'00"N (46.683333)
Longitude:21°09'45"E (21.162500)
Elevation:283 ft (86 m)
Runways:2
Longest:4265 × 98 ft (1300 × 30 m)

Time
Timezone:UTC+1 (DST+4)
Local Time:

Weather
METAR:LHBC  041345Z 32008KT CAVOK 06/01 Q1027

Related Locations
Nearby:
Farthest:CHT: 11559 mi / 18603 km
Waitangi [Tuuta], CIT, NZ

Find:

   beyond  
but within

Other Information
Maps:
Sources:

  


 


Great Circle Mapper   Great Circle Mapper
Great Circle Mapper FAQ   Great Circle Mapper FAQ
  Karl's Home Page
KLS˛   KLS˛ Home
   GC on Facebook
Airlines of the World   Airlines of the World
Donate via PayPal


Copyright © 2004-2020, Karl L. Swartz. All rights reserved.
All trademarks mentioned herein belong to their respective owners.

Please see credits for attribution and copyright information.

Karl Swartz <karl@kls2.com>
  Powered by FreeBSD
Valid HTML 4.01!
Labeled with ICRA
hCard Microformat
Geo Microformat